createdAt,value
2022-08-16T00:02:13.112Z,22.69
2022-08-16T00:07:37.956Z,22.69
2022-08-16T00:13:01.716Z,22.42
2022-08-16T00:18:29.472Z,22.44
2022-08-16T00:23:54.552Z,22.40
2022-08-16T00:29:18.561Z,22.34
2022-08-16T00:34:52.224Z,22.33
2022-08-16T00:40:34.794Z,22.32
2022-08-16T00:46:34.365Z,22.27
2022-08-16T00:51:53.641Z,22.19
2022-08-16T00:57:20.179Z,21.92
2022-08-16T01:02:49.001Z,22.04
2022-08-16T01:08:36.442Z,21.98
2022-08-16T01:14:03.297Z,21.95
2022-08-16T01:19:31.097Z,21.97
2022-08-16T01:24:58.515Z,21.90
2022-08-16T01:30:26.188Z,21.79
2022-08-16T01:35:53.865Z,21.81
2022-08-16T01:41:23.819Z,21.52
2022-08-16T01:46:49.714Z,21.70
2022-08-16T01:52:28.264Z,21.73
2022-08-16T01:58:00.686Z,21.68
2022-08-16T02:03:26.697Z,21.58
2022-08-16T02:08:51.194Z,21.52
2022-08-16T02:14:18.402Z,21.46
2022-08-16T02:19:59.407Z,21.27
2022-08-16T02:25:24.703Z,21.44
2022-08-16T02:31:11.413Z,21.50
2022-08-16T02:36:47.814Z,21.55
2022-08-16T02:42:15.397Z,21.41
2022-08-16T02:48:00.619Z,21.43
2022-08-16T02:53:27.399Z,21.32
2022-08-16T02:58:52.747Z,21.26
2022-08-16T03:04:40.734Z,21.48
2022-08-16T03:10:01.237Z,21.41
2022-08-16T03:15:27.726Z,21.43
2022-08-16T03:20:55.644Z,21.42
2022-08-16T03:26:19.627Z,21.35
2022-08-16T03:31:44.626Z,21.23
2022-08-16T03:37:18.078Z,21.24
2022-08-16T03:43:00.329Z,21.19
2022-08-16T03:48:36.606Z,21.19
2022-08-16T03:54:12.316Z,21.20
2022-08-16T03:59:37.631Z,21.08
2022-08-16T04:05:10.641Z,21.03
2022-08-16T04:10:38.125Z,20.87
2022-08-16T04:16:03.130Z,20.93
2022-08-16T04:21:30.751Z,20.88
2022-08-16T04:26:59.512Z,20.66
2022-08-16T04:32:22.746Z,20.90
2022-08-16T04:37:53.738Z,20.92
2022-08-16T04:43:25.532Z,20.97
2022-08-16T04:48:50.686Z,20.92
2022-08-16T04:54:15.055Z,20.78
2022-08-16T04:59:44.571Z,20.67
2022-08-16T05:05:08.899Z,20.48
2022-08-16T05:10:41.157Z,20.39
2022-08-16T05:16:09.923Z,20.56
2022-08-16T05:21:38.528Z,20.65
2022-08-16T05:27:11.499Z,20.62
2022-08-16T05:32:47.349Z,20.84
2022-08-16T05:38:32.517Z,20.76
2022-08-16T05:44:00.241Z,20.85
2022-08-16T05:49:39.632Z,21.06
2022-08-16T05:55:05.266Z,20.97
2022-08-16T06:00:31.367Z,20.96
2022-08-16T06:05:55.924Z,21.11
2022-08-16T06:11:25.671Z,21.15
2022-08-16T06:16:54.297Z,21.30
2022-08-16T06:22:39.064Z,21.30
2022-08-16T06:28:08.386Z,21.40
2022-08-16T06:33:41.557Z,21.65
2022-08-16T06:39:08.281Z,21.60
2022-08-16T06:44:53.219Z,21.70
2022-08-16T06:50:37.460Z,21.75
2022-08-16T06:56:14.483Z,21.95
2022-08-16T07:01:58.787Z,22.49
2022-08-16T07:07:25.102Z,23.00
2022-08-16T07:13:04.338Z,23.29
2022-08-16T07:18:36.966Z,23.55
2022-08-16T07:24:06.064Z,24.15
2022-08-16T07:29:32.749Z,24.28
2022-08-16T07:34:57.239Z,24.28
2022-08-16T07:40:49.054Z,24.59
2022-08-16T07:46:39.232Z,24.93
2022-08-16T07:51:56.009Z,25.13
2022-08-16T07:57:21.883Z,25.11
2022-08-16T08:02:52.190Z,25.23
2022-08-16T08:08:51.731Z,25.02
2022-08-16T08:14:06.931Z,25.09
2022-08-16T08:19:40.541Z,25.35
2022-08-16T08:25:07.798Z,25.83
2022-08-16T08:30:52.112Z,26.26
2022-08-16T08:36:33.335Z,26.49
2022-08-16T08:42:03.519Z,26.95
2022-08-16T08:47:27.788Z,27.18
2022-08-16T08:52:53.860Z,27.45
2022-08-16T08:58:18.179Z,27.91
2022-08-16T09:04:03.645Z,28.25
2022-08-16T09:09:33.965Z,28.06
2022-08-16T09:15:01.893Z,28.00
2022-08-16T09:20:29.915Z,28.01
2022-08-16T09:25:54.720Z,28.11
2022-08-16T09:31:18.866Z,28.25
2022-08-16T09:36:46.058Z,28.27
2022-08-16T09:42:11.279Z,28.38
2022-08-16T09:47:56.458Z,28.29
2022-08-16T09:53:23.319Z,28.06
2022-08-16T09:59:05.826Z,27.76
2022-08-16T10:04:44.322Z,27.10
2022-08-16T10:10:18.937Z,26.62
2022-08-16T10:15:59.563Z,27.14
2022-08-16T10:21:23.564Z,27.46
2022-08-16T10:27:18.693Z,27.64
2022-08-16T10:32:32.065Z,27.50
2022-08-16T10:37:55.895Z,27.21
2022-08-16T10:43:19.208Z,27.34
2022-08-16T10:48:47.107Z,27.46
2022-08-16T10:54:29.692Z,27.51
2022-08-16T10:59:58.315Z,27.84
2022-08-16T11:05:24.070Z,27.87
2022-08-16T11:11:14.276Z,27.70
2022-08-16T11:22:39.650Z,27.36
2022-08-16T11:28:04.023Z,27.73
2022-08-16T11:33:53.240Z,28.00
2022-08-16T11:39:11.672Z,27.69
2022-08-16T11:44:45.368Z,27.64
2022-08-16T11:50:17.029Z,28.00
2022-08-16T11:55:44.061Z,28.11
2022-08-16T12:01:10.739Z,28.38
2022-08-16T12:06:34.027Z,28.40
2022-08-16T12:12:03.161Z,28.42
2022-08-16T12:17:26.503Z,28.19
2022-08-16T12:22:51.710Z,28.34
2022-08-16T12:28:17.463Z,28.31
2022-08-16T12:34:00.309Z,28.12
2022-08-16T12:39:23.890Z,27.88
2022-08-16T12:44:53.742Z,27.84
2022-08-16T12:50:16.941Z,28.40
2022-08-16T12:55:43.764Z,28.28
2022-08-16T13:01:12.179Z,28.07
2022-08-16T13:06:36.339Z,28.26
2022-08-16T13:12:03.773Z,28.26
2022-08-16T13:17:31.791Z,28.10
2022-08-16T13:23:03.512Z,27.95
2022-08-16T13:28:28.146Z,27.81
2022-08-16T13:33:54.447Z,28.17
2022-08-16T13:39:22.629Z,27.93
2022-08-16T13:44:55.875Z,27.93
2022-08-16T13:50:31.365Z,28.06
2022-08-16T13:56:05.248Z,28.09
2022-08-16T14:01:28.517Z,27.81
2022-08-16T14:06:56.418Z,28.09
2022-08-16T14:12:24.988Z,27.90
2022-08-16T14:18:15.469Z,27.89
2022-08-16T14:23:34.734Z,27.87
2022-08-16T14:29:03.910Z,27.87
2022-08-16T14:34:29.100Z,28.13
2022-08-16T14:39:54.621Z,28.28
2022-08-16T14:45:21.620Z,28.16
2022-08-16T14:50:45.892Z,28.25
2022-08-16T14:56:17.292Z,28.19
2022-08-16T15:01:58.670Z,27.90
2022-08-16T15:07:23.753Z,27.93
2022-08-16T15:12:48.178Z,27.73
2022-08-16T15:18:13.863Z,27.90
2022-08-16T15:23:46.682Z,28.05
2022-08-16T15:29:11.310Z,28.28
2022-08-16T15:34:36.301Z,28.45
2022-08-16T15:39:59.558Z,28.51
2022-08-16T15:45:38.645Z,28.56
2022-08-16T15:51:05.639Z,28.40
2022-08-16T15:56:31.341Z,28.06
2022-08-16T16:02:29.215Z,27.93
2022-08-16T16:07:56.810Z,27.55
2022-08-16T16:13:34.145Z,27.56
2022-08-16T16:19:00.663Z,27.16
2022-08-16T16:24:31.465Z,27.19
2022-08-16T16:29:58.137Z,27.17
2022-08-16T16:35:27.680Z,27.31
2022-08-16T16:40:55.882Z,27.17
2022-08-16T16:46:41.383Z,27.16
2022-08-16T16:52:07.107Z,26.93
2022-08-16T16:57:48.146Z,27.04
2022-08-16T17:03:17.023Z,27.01
2022-08-16T17:08:43.039Z,27.00
2022-08-16T17:14:13.920Z,26.98
2022-08-16T17:19:50.907Z,26.84
2022-08-16T17:25:15.548Z,26.66
2022-08-16T17:30:45.134Z,26.55
2022-08-16T17:36:09.590Z,26.49
2022-08-16T17:41:54.169Z,26.41
2022-08-16T17:47:17.396Z,26.33
2022-08-16T17:52:40.679Z,26.21
2022-08-16T17:58:23.266Z,26.05
2022-08-16T18:04:07.205Z,26.04
2022-08-16T18:09:30.684Z,25.98
2022-08-16T18:14:59.890Z,25.87
2022-08-16T18:20:41.608Z,25.39
2022-08-16T18:26:07.034Z,25.90
2022-08-16T18:31:31.874Z,25.72
2022-08-16T18:36:55.048Z,25.62
2022-08-16T18:42:18.553Z,25.55
2022-08-16T18:47:43.452Z,25.31
2022-08-16T18:53:09.339Z,25.26
2022-08-16T18:58:33.869Z,25.12
2022-08-16T19:03:58.424Z,24.99
2022-08-16T19:09:21.779Z,24.92
2022-08-16T19:14:45.521Z,24.92
2022-08-16T19:20:11.598Z,24.93
2022-08-16T19:25:46.409Z,24.82
2022-08-16T19:31:14.794Z,24.90
2022-08-16T19:36:40.834Z,24.92
2022-08-16T19:42:12.158Z,24.90
2022-08-16T19:47:35.602Z,24.71
2022-08-16T19:53:13.071Z,24.57
2022-08-16T19:59:01.884Z,24.29
2022-08-16T20:04:25.848Z,24.35
2022-08-16T20:09:50.871Z,24.33
2022-08-16T20:15:17.339Z,24.27
2022-08-16T20:21:08.673Z,24.33
2022-08-16T20:26:34.681Z,24.29
2022-08-16T20:31:57.923Z,24.32
2022-08-16T20:37:22.213Z,24.32
2022-08-16T20:42:50.701Z,24.16
2022-08-16T20:48:16.441Z,24.15
2022-08-16T20:54:15.065Z,24.16
2022-08-16T20:59:57.841Z,24.21
2022-08-16T21:12:37.611Z,23.97
2022-08-16T21:18:02.795Z,23.95
2022-08-16T21:23:25.953Z,23.89
2022-08-16T21:28:49.137Z,23.82
2022-08-16T21:34:13.894Z,23.78
2022-08-16T21:39:37.160Z,23.73
2022-08-16T21:45:00.385Z,23.63
2022-08-16T21:50:24.940Z,23.65
2022-08-16T21:55:50.214Z,23.57
2022-08-16T22:01:13.417Z,23.53
2022-08-16T22:06:38.234Z,23.51
2022-08-16T22:12:01.387Z,23.45
2022-08-16T22:17:24.455Z,23.34
2022-08-16T22:22:50.077Z,23.29
2022-08-16T22:28:14.523Z,23.17
2022-08-16T22:33:37.860Z,23.21
2022-08-16T22:39:07.336Z,23.18
2022-08-16T22:44:30.471Z,23.08
2022-08-16T22:49:53.561Z,22.93
2022-08-16T22:55:19.200Z,22.92
2022-08-16T23:00:43.821Z,22.91
2022-08-16T23:06:07.573Z,22.85
2022-08-16T23:11:32.682Z,22.76
2022-08-16T23:16:56.515Z,22.68
2022-08-16T23:22:24.754Z,22.64
2022-08-16T23:27:49.805Z,22.45
2022-08-16T23:33:14.705Z,22.54
2022-08-16T23:38:39.515Z,22.40
2022-08-16T23:50:01.003Z,22.29
2022-08-16T23:55:27.663Z,22.26
